createdAt,value
2023-02-06T00:03:14.721Z,101535.38
2023-02-06T00:09:16.624Z,101526.50
2023-02-06T00:15:19.867Z,101525.06
2023-02-06T00:21:24.535Z,101524.59
2023-02-06T00:27:26.957Z,101513.81
2023-02-06T00:33:28.829Z,101527.16
2023-02-06T00:39:30.860Z,101529.81
2023-02-06T00:45:33.481Z,101524.13
2023-02-06T00:51:38.767Z,101525.66
2023-02-06T00:57:40.942Z,101522.44
2023-02-06T01:03:42.804Z,101533.72
2023-02-06T01:09:44.677Z,101526.13
2023-02-06T01:15:46.597Z,101539.84
2023-02-06T01:21:48.469Z,101541.91
2023-02-06T01:27:50.441Z,101549.59
2023-02-06T01:33:52.903Z,101550.81
2023-02-06T01:39:54.772Z,101553.94
2023-02-06T01:45:57.287Z,101549.78
2023-02-06T01:52:15.253Z,101535.09
2023-02-06T01:58:24.345Z,101534.63
2023-02-06T02:04:28.516Z,101538.72
2023-02-06T02:10:31.763Z,101537.00
2023-02-06T02:16:42.729Z,101541.19
2023-02-06T02:23:18.968Z,101542.69
2023-02-06T02:30:23.084Z,101539.84
2023-02-06T02:36:37.084Z,101533.41
2023-02-06T02:43:22.380Z,101524.59
2023-02-06T02:49:29.056Z,101537.59
2023-02-06T02:55:31.438Z,101535.69
2023-02-06T03:01:44.678Z,101541.22
2023-02-06T03:08:11.364Z,101537.88
2023-02-06T03:14:51.731Z,101520.81
2023-02-06T03:20:53.768Z,101523.81
2023-02-06T03:27:03.243Z,101520.25
2023-02-06T03:33:10.125Z,101532.94
2023-02-06T03:39:12.698Z,101533.22
2023-02-06T03:45:34.386Z,101522.38
2023-02-06T03:52:02.697Z,101525.28
2023-02-06T03:58:10.043Z,101509.25
2023-02-06T04:04:20.259Z,101503.97
2023-02-06T04:10:24.427Z,101501.16
2023-02-06T04:16:27.224Z,101505.69
2023-02-06T04:22:29.108Z,101507.78
2023-02-06T04:28:31.086Z,101505.59
2023-02-06T04:34:34.700Z,101513.34
2023-02-06T04:40:36.813Z,101492.63
2023-02-06T04:46:38.702Z,101491.00
2023-02-06T04:52:40.632Z,101496.22
2023-02-06T04:58:42.529Z,101502.47
2023-02-06T05:04:44.457Z,101493.13
2023-02-06T05:10:46.345Z,101505.00
2023-02-06T05:16:48.709Z,101513.06
2023-02-06T05:22:50.582Z,101511.66
2023-02-06T05:28:52.896Z,101510.03
2023-02-06T05:34:54.809Z,101520.91
2023-02-06T05:40:56.745Z,101520.44
2023-02-06T05:46:58.825Z,101531.03
2023-02-06T05:53:00.765Z,101529.34
2023-02-06T05:59:02.655Z,101519.50
2023-02-06T06:05:05.084Z,101536.44
2023-02-06T06:11:07.754Z,101526.59
2023-02-06T06:17:10.033Z,101520.19
2023-02-06T06:23:11.909Z,101525.81
2023-02-06T06:29:14.178Z,101539.75
2023-02-06T06:35:16.123Z,101553.72
2023-02-06T06:41:18.059Z,101565.53
2023-02-06T06:47:19.923Z,101569.63
2023-02-06T06:53:22.015Z,101576.25
2023-02-06T06:59:23.923Z,101563.31
2023-02-06T07:05:26.072Z,101566.53
2023-02-06T07:11:28.080Z,101564.63
2023-02-06T07:17:29.995Z,101563.38
2023-02-06T07:23:31.940Z,101558.13
2023-02-06T07:29:34.205Z,101547.63
2023-02-06T07:35:36.459Z,101546.91
2023-02-06T07:41:38.552Z,101556.38
2023-02-06T07:47:40.466Z,101564.19
2023-02-06T07:53:42.376Z,101573.03
2023-02-06T07:59:44.390Z,101561.47
2023-02-06T08:05:46.692Z,101570.09
2023-02-06T08:11:48.596Z,101566.41
2023-02-06T08:17:50.482Z,101569.09
2023-02-06T08:23:57.844Z,101568.50
2023-02-06T08:29:59.740Z,101572.38
2023-02-06T08:36:05.918Z,101558.69
2023-02-06T08:42:07.798Z,101554.56
2023-02-06T08:48:09.701Z,101550.81
2023-02-06T08:54:16.744Z,101567.28
2023-02-06T09:00:19.375Z,101546.16
2023-02-06T09:06:21.616Z,101548.38
2023-02-06T09:12:23.533Z,101531.06
2023-02-06T09:18:25.440Z,101522.50
2023-02-06T09:24:30.085Z,101532.84
2023-02-06T09:30:32.154Z,101536.06
2023-02-06T09:36:35.099Z,101545.25
2023-02-06T09:42:40.862Z,101554.16
2023-02-06T09:48:43.323Z,101543.34
2023-02-06T09:55:18.061Z,101544.69
2023-02-06T10:01:40.699Z,101544.91
2023-02-06T10:07:57.381Z,101536.22
2023-02-06T10:14:26.987Z,101541.53
2023-02-06T10:20:36.179Z,101521.31
2023-02-06T10:26:40.585Z,101499.44
2023-02-06T10:33:02.344Z,101495.69
2023-02-06T10:39:12.835Z,101493.88
2023-02-06T10:45:52.352Z,101488.72
2023-02-06T10:52:25.227Z,101487.84
2023-02-06T10:58:51.383Z,101474.72
2023-02-06T11:05:14.393Z,101489.38
2023-02-06T11:11:30.963Z,101487.63
2023-02-06T11:17:33.089Z,101486.53
2023-02-06T11:23:35.263Z,101487.94
2023-02-06T11:29:45.824Z,101490.69
2023-02-06T11:35:59.834Z,101470.69
2023-02-06T11:42:23.035Z,101482.84
2023-02-06T11:48:47.256Z,101463.63
2023-02-06T11:54:55.432Z,101470.84
2023-02-06T12:01:05.539Z,101471.00
2023-02-06T12:07:29.941Z,101473.25
2023-02-06T12:13:42.944Z,101462.41
2023-02-06T12:19:52.233Z,101455.94
2023-02-06T12:25:59.995Z,101470.81
2023-02-06T12:32:08.793Z,101464.69
2023-02-06T12:38:18.119Z,101472.00
2023-02-06T12:44:34.624Z,101483.72
2023-02-06T12:50:50.998Z,101476.09
2023-02-06T12:57:12.417Z,101477.09
2023-02-06T13:03:20.268Z,101494.88
2023-02-06T13:09:30.921Z,101500.91
2023-02-06T13:15:40.344Z,101500.25
2023-02-06T13:22:08.260Z,101496.88
2023-02-06T13:28:22.537Z,101507.63
2023-02-06T13:34:25.187Z,101506.13
2023-02-06T13:40:30.710Z,101512.41
2023-02-06T13:47:09.157Z,101528.31
2023-02-06T13:53:32.211Z,101533.38
2023-02-06T14:00:03.079Z,101527.50
2023-02-06T14:06:48.517Z,101532.31
2023-02-06T14:13:31.690Z,101519.28
2023-02-06T14:20:01.859Z,101511.88
2023-02-06T14:26:22.414Z,101505.22
2023-02-06T14:32:44.571Z,101504.81
2023-02-06T14:39:12.464Z,101500.53
2023-02-06T14:45:42.221Z,101496.47
2023-02-06T14:51:50.809Z,101496.00
2023-02-06T14:57:52.711Z,101502.91
2023-02-06T15:04:13.153Z,101503.63
2023-02-06T15:10:18.243Z,101509.75
2023-02-06T15:16:20.387Z,101494.53
2023-02-06T15:22:30.648Z,101490.41
2023-02-06T15:28:36.079Z,101499.19
2023-02-06T15:34:38.479Z,101518.66
2023-02-06T15:40:47.884Z,101528.53
2023-02-06T15:46:51.206Z,101546.19
2023-02-06T15:52:54.531Z,101546.75
2023-02-06T15:59:07.063Z,101537.09
2023-02-06T16:05:25.187Z,101553.22
2023-02-06T16:11:51.107Z,101554.53
2023-02-06T16:17:54.347Z,101552.13
2023-02-06T16:24:03.246Z,101559.50
2023-02-06T16:30:05.538Z,101548.44
2023-02-06T16:36:09.454Z,101538.09
2023-02-06T16:42:37.266Z,101539.56
2023-02-06T16:48:39.252Z,101521.16
2023-02-06T16:54:41.171Z,101521.94
2023-02-06T17:00:43.296Z,101538.47
2023-02-06T17:06:45.254Z,101549.75
2023-02-06T17:12:47.995Z,101548.06
2023-02-06T17:18:50.781Z,101550.81
2023-02-06T17:24:52.727Z,101547.75
2023-02-06T17:30:54.733Z,101561.97
2023-02-06T17:36:56.834Z,101562.16
2023-02-06T17:43:02.190Z,101564.25
2023-02-06T17:49:05.663Z,101560.31
2023-02-06T17:55:08.317Z,101564.66
2023-02-06T18:01:13.293Z,101559.59
2023-02-06T18:07:15.278Z,101570.88
2023-02-06T18:13:17.291Z,101559.31
2023-02-06T18:19:23.868Z,101569.56
2023-02-06T18:25:25.813Z,101570.97
2023-02-06T18:31:32.888Z,101575.50
2023-02-06T18:37:35.096Z,101583.25
2023-02-06T18:43:37.020Z,101597.53
2023-02-06T18:49:39.699Z,101603.69
2023-02-06T18:55:42.387Z,101610.25
2023-02-06T19:01:44.617Z,101599.13
2023-02-06T19:07:53.647Z,101599.25
2023-02-06T19:13:55.617Z,101605.22
2023-02-06T19:19:57.638Z,101596.63
2023-02-06T19:25:59.558Z,101589.53
2023-02-06T19:32:02.588Z,101598.25
2023-02-06T19:38:04.485Z,101596.22
2023-02-06T19:44:14.569Z,101601.94
2023-02-06T19:50:16.579Z,101599.78
2023-02-06T19:56:21.582Z,101586.25
2023-02-06T20:02:23.511Z,101592.31
2023-02-06T20:08:25.514Z,101573.47
2023-02-06T20:14:29.030Z,101575.06
2023-02-06T20:20:34.977Z,101591.19
2023-02-06T20:26:40.786Z,101595.25
2023-02-06T20:32:42.676Z,101586.22
2023-02-06T20:38:52.295Z,101578.81
2023-02-06T20:44:54.967Z,101597.91
2023-02-06T20:50:59.465Z,101603.09
2023-02-06T20:57:01.591Z,101588.00
2023-02-06T21:03:04.090Z,101612.72
2023-02-06T21:09:07.804Z,101615.38
2023-02-06T21:15:09.994Z,101633.50
2023-02-06T21:21:14.325Z,101633.34
2023-02-06T21:27:16.254Z,101613.41
2023-02-06T21:33:18.169Z,101641.81
2023-02-06T21:39:26.863Z,101619.09
2023-02-06T21:45:28.786Z,101617.69
2023-02-06T21:51:31.406Z,101628.44
2023-02-06T21:57:33.387Z,101631.31
2023-02-06T22:03:35.305Z,101632.69
2023-02-06T22:09:37.278Z,101635.34
2023-02-06T22:15:39.851Z,101628.69
2023-02-06T22:21:42.617Z,101641.38
2023-02-06T22:27:44.648Z,101642.00
2023-02-06T22:33:47.149Z,101647.19
2023-02-06T22:39:49.031Z,101642.34
2023-02-06T22:45:50.942Z,101654.03
2023-02-06T22:51:52.921Z,101672.53
2023-02-06T22:57:54.807Z,101678.59
2023-02-06T23:04:00.352Z,101692.34
2023-02-06T23:10:02.412Z,101706.84
2023-02-06T23:16:05.032Z,101685.53
2023-02-06T23:22:07.885Z,101692.28
2023-02-06T23:28:10.147Z,101698.72
2023-02-06T23:34:12.815Z,101698.31
2023-02-06T23:40:14.848Z,101697.81
2023-02-06T23:46:17.336Z,101702.53
2023-02-06T23:52:19.352Z,101718.72
2023-02-06T23:58:21.929Z,101724.28
